This is the latest recevied weather packets stored in our database for station/object KB3KAV. If no packets are shown the sender has not sent any weather packets the latest 10 day(s).
| Time | Temp. | Humidity | Pressure | Rain* | Wind** | Luminosity | Snow |
|---|---|---|---|---|---|---|---|
| 1787677648 | 22.78° C | 69% | 1046.1 hPa | 0 mm | - | 165 W/m² | - |
| 1787677046 | 22.78° C | 69% | 1046.4 hPa | 0 mm | - | 426 W/m² | - |
| 1787676443 | 21.67° C | 72% | 1046.5 hPa | 0 mm | - | 314 W/m² | - |
| 1787675841 | 21.67° C | 73% | 1046.2 hPa | 0 mm | - | 168 W/m² | - |
| 1787675235 | 22.78° C | 68% | 1046.2 hPa | 0 mm | - | 162 W/m² | - |
| 1787674632 | 22.22° C | 69% | 1046.5 hPa | 0 mm | - | 319 W/m² | - |
| 1787674028 | 21.67° C | 72% | 1046.5 hPa | 0 mm | - | 220 W/m² | - |
| 1787673422 | 21.11° C | 74% | 1046.5 hPa | 0 mm | - | 661 W/m² | - |
| 1787672817 | 20.56° C | 76% | 1046.8 hPa | 0 mm | - | 185 W/m² | - |
| 1787672212 | 20.56° C | 75% | 1046.7 hPa | 0 mm | - | 223 W/m² | - |
| 1787671608 | 20.56° C | 79% | 1046.8 hPa | 0 mm | - | 225 W/m² | - |
| 1787671003 | 20° C | 76% | 1046.9 hPa | 0 mm | - | 155 W/m² | - |
| 1787670398 | 20° C | 75% | 1047.2 hPa | 0 mm | - | 189 W/m² | - |
| 1787669798 | 20.56° C | 73% | 1046.9 hPa | 0 mm | - | 150 W/m² | - |
| 1787669194 | 21.67° C | 72% | 1046.9 hPa | 0 mm | - | 385 W/m² | - |
| 1787668592 | 20.56° C | 75% | 1046.8 hPa | 0 mm | - | 602 W/m² | - |
| 1787667988 | 20.56° C | 76% | 1046.9 hPa | 0 mm | - | 641 W/m² | - |
| 1787667385 | 20° C | 77% | 1046.9 hPa | 0 mm | - | 559 W/m² | - |
| 1787666781 | 19.44° C | 79% | 1046.7 hPa | 0 mm | - | 459 W/m² | - |
| 1787666182 | 19.44° C | 79% | 1046.5 hPa | 0 mm | - | 462 W/m² | - |
| 1787665579 | 18.33° C | 83% | 1046.5 hPa | 0 mm | - | 380 W/m² | - |
| 1787664975 | 18.89° C | 83% | 1046.6 hPa | 0 mm | - | 377 W/m² | - |
| 1787664371 | 17.78° C | 87% | 1046.5 hPa | 0 mm | - | 178 W/m² | - |
| 1787663766 | 17.22° C | 88% | 1046.4 hPa | 0 mm | - | 180 W/m² | - |
| 1787663163 | 16.67° C | 89% | 1046.8 hPa | 0 mm | - | 169 W/m² | - |
* Rain latest hour (hover to see other rain measurements)
** Current wind speed in m/s (hover to see current wind gust speed)